Time;durP1;ratioP1;P1;durP2;ratioP2;P2;SDS_P1;SDS_P2;PMS_P1;PMS_P2;Temp;Humidity;BMP_temperature;BMP_pressure;BME280_temperature;BME280_humidity;BME280_pressure;Samples;Min_cycle;Max_cycle;Signal;HPM_P1;HPM_P2
2021/03/14 00:00:34;;;;;;;;;;;;;;;4.60;75.89;98816.97;1667428;83;20295;-78
2021/03/14 00:03:21;;;;;;;;;;;;;;;4.60;75.87;98810.13;1664666;83;20339;-77
2021/03/14 00:06:06;;;;;;;;;;;;;;;4.60;75.87;98808.85;1690796;84;20309;-77
2021/03/14 00:08:51;;;;;;;;;;;;;;;4.59;75.86;98811.00;1683137;83;20267;-77
2021/03/14 00:11:35;;;;;;;;;;;;;;;4.59;75.83;98813.56;1680222;84;20332;-78
2021/03/14 00:14:20;;;;;;;;;;;;;;;4.60;75.84;98811.84;1690810;84;20205;-78
2021/03/14 00:17:05;;;;;;;;;;;;;;;4.59;75.81;98805.88;1663640;84;20310;-78
2021/03/14 00:19:49;;;;;;;;;;;;;;;4.60;75.77;98803.73;1668692;83;20314;-78
2021/03/14 00:22:34;;;;;;;;;;;;;;;4.58;75.79;98805.48;1690908;84;20340;-78
2021/03/14 00:25:19;;;;;;;;;;;;;;;4.59;75.78;98797.36;1674579;83;20302;-78
2021/03/14 00:28:04;;;;;;;;;;;;;;;4.59;75.79;98796.92;1663014;84;20304;-78
2021/03/14 00:30:49;;;;;;;;;;;;;;;4.61;75.76;98795.62;1663182;86;20478;-78
2021/03/14 00:33:34;;;;;;;;;;;;;;;4.59;75.78;98789.69;1663895;84;20298;-78
2021/03/14 00:36:18;;;;;;;;;;;;;;;4.60;75.75;98793.93;1641929;86;20323;-78
2021/03/14 00:39:04;;;;;;;;;;;;;;;4.59;75.78;98789.25;1663122;86;20307;-77
2021/03/14 00:41:48;;;;;;;;;;;;;;;4.61;75.74;98796.89;1686370;83;20534;-77
2021/03/14 00:44:33;;;;;;;;;;;;;;;4.60;75.74;98785.81;1663477;85;20302;-77
2021/03/14 00:47:18;;;;;;;;;;;;;;;4.60;75.72;98781.97;1662944;83;20686;-77
2021/03/14 00:50:06;;;;;;;;;;;;;;;4.60;75.72;98789.66;1682032;84;20293;-77
2021/03/14 00:52:50;;;;;;;;;;;;;;;4.59;75.70;98795.65;1688070;84;20205;-77
2021/03/14 00:55:35;;;;;;;;;;;;;;;4.59;75.70;98798.64;1676736;83;20579;-78
2021/03/14 00:58:20;;;;;;;;;;;;;;;4.59;75.65;98798.20;1674207;83;20332;-77
2021/03/14 01:01:05;;;;;;;;;;;;;;;4.58;75.64;98801.64;1690500;84;20340;-77
2021/03/14 01:03:50;;;;;;;;;;;;;;;4.59;75.64;98797.36;1690599;83;20304;-77
2021/03/14 01:06:34;;;;;;;;;;;;;;;4.57;75.59;98799.11;1672302;84;21412;-77
2021/03/14 01:09:19;;;;;;;;;;;;;;;4.56;75.62;98796.98;1690723;84;20289;-78
2021/03/14 01:12:05;;;;;;;;;;;;;;;4.56;75.66;98794.43;1687782;84;20481;-78
2021/03/14 01:14:49;;;;;;;;;;;;;;;4.59;75.67;98803.33;1663497;84;20649;-78
2021/03/14 01:17:34;;;;;;;;;;;;;;;4.62;75.70;98798.14;1673001;83;20292;-78
2021/03/14 01:20:21;;;;;;;;;;;;;;;4.64;75.70;98792.55;1690100;83;20300;-78
2021/03/14 01:23:06;;;;;;;;;;;;;;;4.69;75.69;98797.55;1679405;84;20313;-78
2021/03/14 01:25:51;;;;;;;;;;;;;;;4.73;75.67;98795.77;1678364;83;20311;-78
2021/03/14 01:28:35;;;;;;;;;;;;;;;4.77;75.64;98791.82;1662732;84;20294;-78
2021/03/14 01:31:20;;;;;;;;;;;;;;;4.80;75.61;98798.16;1671123;84;20310;-78
2021/03/14 01:34:04;;;;;;;;;;;;;;;4.84;75.57;98798.94;1675736;83;21137;-78
2021/03/14 01:36:49;;;;;;;;;;;;;;;4.85;75.54;98787.81;1662754;84;20291;-77
2021/03/14 01:39:34;;;;;;;;;;;;;;;4.83;75.46;98796.81;1662809;83;20331;-77
2021/03/14 01:42:32;;;;;;;;;;;;;;;4.80;75.42;98792.19;1662740;84;20398;-77
2021/03/14 01:45:17;;;;;;;;;;;;;;;4.78;75.45;98787.11;1661983;83;20294;-77
2021/03/14 01:48:06;;;;;;;;;;;;;;;4.73;75.41;98785.08;1663103;83;20314;-78
2021/03/14 01:50:50;;;;;;;;;;;;;;;4.68;75.38;98780.50;1680050;84;20317;-77
2021/03/14 01:53:35;;;;;;;;;;;;;;;4.61;75.40;98781.53;1690762;84;20329;-77
2021/03/14 01:56:19;;;;;;;;;;;;;;;4.57;75.45;98780.76;1664877;84;20309;-77
2021/03/14 01:59:04;;;;;;;;;;;;;;;4.55;75.43;98789.34;1663032;86;20323;-77
2021/03/14 02:01:49;;;;;;;;;;;;;;;4.51;75.45;98786.45;1663962;83;20307;-77
2021/03/14 02:04:33;;;;;;;;;;;;;;;4.47;75.47;98785.66;1662707;84;20315;-78
2021/03/14 02:07:18;;;;;;;;;;;;;;;4.45;75.49;98782.73;1662994;83;20303;-77
2021/03/14 02:10:04;;;;;;;;;;;;;;;4.42;75.45;98778.95;1664377;84;20660;-77
2021/03/14 02:12:58;;;;;;;;;;;;;;;4.38;75.45;98778.17;1665793;83;20187;-77
2021/03/14 02:15:48;;;;;;;;;;;;;;;4.37;75.47;98774.36;1678887;84;20300;-77
2021/03/14 02:18:33;;;;;;;;;;;;;;;4.34;75.46;98771.44;1691190;83;20296;-77
2021/03/14 02:21:19;;;;;;;;;;;;;;;4.32;75.44;98768.91;1675014;83;20299;-77
2021/03/14 02:24:10;;;;;;;;;;;;;;;4.31;75.45;98770.22;1642313;84;2294682;-77
2021/03/14 02:27:01;;;;;;;;;;;;;;;4.30;75.47;98768.53;1683595;83;20483;-77
2021/03/14 02:29:46;;;;;;;;;;;;;;;4.32;75.50;98770.62;1677732;84;20282;-77
2021/03/14 02:32:32;;;;;;;;;;;;;;;4.36;75.53;98771.41;1665410;83;20296;-77
2021/03/14 02:35:18;;;;;;;;;;;;;;;4.40;75.54;98770.47;1696059;83;20320;-77
2021/03/14 02:38:03;;;;;;;;;;;;;;;4.45;75.52;98777.61;1674729;83;20296;-77
2021/03/14 02:40:47;;;;;;;;;;;;;;;4.49;75.51;98782.63;1676043;84;20422;-77
2021/03/14 02:43:32;;;;;;;;;;;;;;;4.56;75.50;98789.31;1675600;84;20332;-77
2021/03/14 02:46:17;;;;;;;;;;;;;;;4.60;75.47;98789.66;1647981;86;20317;-77
2021/03/14 02:49:02;;;;;;;;;;;;;;;4.65;75.47;98791.68;1676398;84;20368;-77
2021/03/14 02:51:47;;;;;;;;;;;;;;;4.69;75.43;98788.59;1656426;85;20342;-77
2021/03/14 02:54:33;;;;;;;;;;;;;;;4.74;75.39;98785.92;1672539;84;20318;-77
2021/03/14 02:57:22;;;;;;;;;;;;;;;4.78;75.40;98795.22;1672072;85;20360;-78
2021/03/14 03:00:09;;;;;;;;;;;;;;;4.82;75.34;98798.97;1654708;84;21096;-77
2021/03/14 03:02:56;;;;;;;;;;;;;;;4.85;75.35;98792.94;1650355;86;20289;-77
2021/03/14 03:05:41;;;;;;;;;;;;;;;4.88;75.33;98796.71;1649182;86;20302;-77
2021/03/14 03:08:28;;;;;;;;;;;;;;;4.91;75.32;98793.64;1649725;84;20354;-77
2021/03/14 03:11:15;;;;;;;;;;;;;;;4.93;75.29;98803.85;1649090;86;20302;-78
2021/03/14 03:13:59;;;;;;;;;;;;;;;4.96;75.26;98794.82;1653857;84;20860;-77
2021/03/14 03:16:46;;;;;;;;;;;;;;;4.98;75.24;98801.59;1652891;84;20334;-77
2021/03/14 03:19:32;;;;;;;;;;;;;;;5.00;75.22;98807.97;1673516;84;20393;-77
2021/03/14 03:22:16;;;;;;;;;;;;;;;5.02;75.18;98798.97;1671046;85;20747;-77
2021/03/14 03:25:02;;;;;;;;;;;;;;;5.04;75.17;98794.65;1665379;84;20292;-77
2021/03/14 03:27:47;;;;;;;;;;;;;;;5.05;75.16;98798.90;1663003;84;20319;-77
2021/03/14 03:30:33;;;;;;;;;;;;;;;5.04;75.12;98790.81;1667470;84;20332;-77
2021/03/14 03:33:18;;;;;;;;;;;;;;;5.04;75.10;98788.25;1629888;87;20299;-77
2021/03/14 03:36:03;;;;;;;;;;;;;;;5.04;75.01;98787.80;1649270;84;20426;-77
2021/03/14 03:38:48;;;;;;;;;;;;;;;5.02;74.99;98788.28;1649120;85;20302;-77
2021/03/14 03:41:34;;;;;;;;;;;;;;;5.01;74.94;98781.47;1650858;85;20310;-77
2021/03/14 03:44:21;;;;;;;;;;;;;;;4.98;74.93;98786.23;1664911;85;20284;-77
2021/03/14 03:47:08;;;;;;;;;;;;;;;4.94;74.93;98781.20;1678093;84;20261;-77
2021/03/14 03:49:54;;;;;;;;;;;;;;;4.91;74.90;98781.27;1678130;85;20486;-77
2021/03/14 03:52:39;;;;;;;;;;;;;;;4.89;74.91;98767.23;1676614;84;20276;-77
2021/03/14 03:55:24;;;;;;;;;;;;;;;4.87;74.92;98771.54;1650578;85;20545;-77
2021/03/14 03:58:09;;;;;;;;;;;;;;;4.86;74.90;98776.26;1650444;86;20286;-77
2021/03/14 04:00:55;;;;;;;;;;;;;;;4.85;74.90;98783.53;1654698;84;20302;-77
2021/03/14 04:03:41;;;;;;;;;;;;;;;4.86;74.92;98780.54;1649117;86;20290;-77
2021/03/14 04:06:27;;;;;;;;;;;;;;;4.86;74.91;98784.38;1652838;85;20303;-77
2021/03/14 04:09:12;;;;;;;;;;;;;;;4.87;74.91;98775.82;1696496;83;20346;-77
2021/03/14 04:11:56;;;;;;;;;;;;;;;4.88;74.88;98773.22;1569526;91;20311;-77
2021/03/14 04:14:41;;;;;;;;;;;;;;;4.89;74.84;98769.78;1537124;91;20304;-77
2021/03/14 04:17:27;;;;;;;;;;;;;;;4.91;74.86;98769.31;1532394;92;20312;-77
2021/03/14 04:20:18;;;;;;;;;;;;;;;4.93;74.84;98774.41;1529234;92;20336;-77
2021/03/14 04:23:12;;;;;;;;;;;;;;;4.95;74.80;98762.41;1534298;91;20306;-77
2021/03/14 04:25:58;;;;;;;;;;;;;;;4.96;74.79;98778.17;1534653;91;20311;-78
2021/03/14 04:28:44;;;;;;;;;;;;;;;4.98;74.79;98778.55;1553240;91;20331;-77
2021/03/14 04:31:29;;;;;;;;;;;;;;;4.98;74.74;98771.30;1572106;89;20333;-77
2021/03/14 04:34:16;;;;;;;;;;;;;;;4.98;74.71;98778.55;1557879;89;20331;-77
2021/03/14 04:37:01;;;;;;;;;;;;;;;4.98;74.74;98767.02;1568235;91;21056;-77
2021/03/14 04:39:46;;;;;;;;;;;;;;;4.99;74.68;98767.86;1568408;91;20325;-77
2021/03/14 04:42:30;;;;;;;;;;;;;;;4.98;74.68;98774.70;1552585;89;20351;-77
2021/03/14 04:45:16;;;;;;;;;;;;;;;4.97;74.65;98773.02;1545510;91;20220;-78
2021/03/14 04:48:01;;;;;;;;;;;;;;;4.94;74.62;98767.13;1545519;92;20614;-78
2021/03/14 04:50:46;;;;;;;;;;;;;;;4.92;74.59;98763.31;1548836;91;20257;-77
2021/03/14 04:53:32;;;;;;;;;;;;;;;4.90;74.61;98781.72;1569633;91;20297;-77
2021/03/14 04:56:17;;;;;;;;;;;;;;;4.90;74.64;98774.47;1558579;91;20359;-77
2021/03/14 04:59:02;;;;;;;;;;;;;;;4.91;74.65;98774.87;1544181;91;20776;-77
2021/03/14 05:01:49;;;;;;;;;;;;;;;4.91;74.67;98770.59;1568098;90;20288;-77
2021/03/14 05:04:34;;;;;;;;;;;;;;;4.91;74.68;98770.59;1567242;89;20319;-77
2021/03/14 05:07:20;;;;;;;;;;;;;;;4.90;74.66;98775.31;1544023;91;20335;-78
2021/03/14 05:10:07;;;;;;;;;;;;;;;4.92;74.68;98777.84;1558031;90;20345;-78
2021/03/14 05:12:52;;;;;;;;;;;;;;;4.92;74.67;98779.12;1557539;89;20301;-77
2021/03/14 05:15:38;;;;;;;;;;;;;;;4.92;74.68;98780.40;1568006;89;20321;-78
2021/03/14 05:18:22;;;;;;;;;;;;;;;4.91;74.73;98774.87;1541063;91;20319;-77
2021/03/14 05:21:08;;;;;;;;;;;;;;;4.89;74.76;98783.03;1567611;89;20316;-77
2021/03/14 05:23:53;;;;;;;;;;;;;;;4.86;74.79;98775.41;1557976;89;20747;-77
2021/03/14 05:26:44;;;;;;;;;;;;;;;4.84;74.79;98775.45;1562850;90;20328;-77
2021/03/14 05:29:29;;;;;;;;;;;;;;;4.83;74.83;98767.36;1565255;89;20617;-77
2021/03/14 05:32:13;;;;;;;;;;;;;;;4.82;74.79;98777.64;1555751;90;20305;-77
2021/03/14 05:34:58;;;;;;;;;;;;;;;4.81;74.80;98780.64;1563199;89;20317;-77
2021/03/14 05:37:43;;;;;;;;;;;;;;;4.83;74.83;98780.61;1557880;90;20423;-77
2021/03/14 05:40:29;;;;;;;;;;;;;;;4.83;74.80;98777.61;1527713;91;20303;-79
2021/03/14 05:43:14;;;;;;;;;;;;;;;4.85;74.79;98780.98;1559356;89;20300;-77
2021/03/14 05:45:58;;;;;;;;;;;;;;;4.84;74.78;98785.69;1561400;89;20560;-77
2021/03/14 05:48:44;;;;;;;;;;;;;;;4.86;74.81;98771.58;1563991;90;20631;-77
2021/03/14 05:51:31;;;;;;;;;;;;;;;4.87;74.80;98792.46;1564923;90;20531;-77
2021/03/14 05:54:16;;;;;;;;;;;;;;;4.86;74.82;98781.81;1536355;91;20324;-74
2021/03/14 05:57:02;;;;;;;;;;;;;;;4.87;74.83;98786.91;1565157;89;21412;-78
2021/03/14 05:59:50;;;;;;;;;;;;;;;4.85;74.78;98783.97;1574041;89;20343;-78
2021/03/14 06:02:34;;;;;;;;;;;;;;;4.90;74.84;98788.12;1557874;90;20333;-78
2021/03/14 06:05:19;;;;;;;;;;;;;;;4.93;74.81;98794.45;1560286;89;20475;-77
2021/03/14 06:08:04;;;;;;;;;;;;;;;4.97;74.81;98796.51;1560562;90;20365;-77
2021/03/14 06:10:49;;;;;;;;;;;;;;;5.00;74.79;98796.44;1532697;92;20318;-78
2021/03/14 06:13:34;;;;;;;;;;;;;;;5.05;74.75;98797.17;1555189;89;20722;-78
2021/03/14 06:16:19;;;;;;;;;;;;;;;5.10;74.75;98805.60;1563574;90;20593;-79
2021/03/14 06:19:04;;;;;;;;;;;;;;;5.16;74.76;98811.02;1563092;90;20349;-78
2021/03/14 06:21:48;;;;;;;;;;;;;;;5.21;74.75;98816.85;1537504;91;20337;-76
2021/03/14 06:24:39;;;;;;;;;;;;;;;5.24;74.69;98819.34;1547700;90;20327;-76
2021/03/14 06:27:37;;;;;;;;;;;;;;;5.26;74.67;98825.28;1546527;91;20445;-76
2021/03/14 06:30:27;;;;;;;;;;;;;;;5.24;74.67;98830.88;1549199;91;20374;-76
2021/03/14 06:33:13;;;;;;;;;;;;;;;5.23;74.67;98835.16;1557872;89;21042;-76
2021/03/14 06:35:58;;;;;;;;;;;;;;;5.23;74.70;98840.72;1523291;91;20275;-76
2021/03/14 06:38:42;;;;;;;;;;;;;;;5.21;74.74;98842.47;1540475;90;20303;-76
2021/03/14 06:41:27;;;;;;;;;;;;;;;5.19;74.77;98852.79;1539416;91;20279;-76
2021/03/14 06:44:15;;;;;;;;;;;;;;;5.19;74.79;98856.63;1563972;89;20313;-76
2021/03/14 06:47:00;;;;;;;;;;;;;;;5.20;74.84;98870.28;1539226;91;20476;-76
2021/03/14 06:49:45;;;;;;;;;;;;;;;5.22;74.88;98874.47;1539934;91;20311;-76
2021/03/14 06:52:29;;;;;;;;;;;;;;;5.26;74.90;98879.09;1536184;91;20310;-76
2021/03/14 06:55:17;;;;;;;;;;;;;;;5.31;74.93;98882.39;1538079;91;20302;-76
2021/03/14 06:58:27;;;;;;;;;;;;;;;5.36;74.94;98883.57;1530910;91;20314;-76
2021/03/14 07:01:19;;;;;;;;;;;;;;;5.39;74.98;98900.16;1542492;91;20304;-77
2021/03/14 07:04:03;;;;;;;;;;;;;;;5.39;74.93;98895.87;1535208;91;20323;-77
2021/03/14 07:06:48;;;;;;;;;;;;;;;5.37;75.04;98908.32;1537234;91;20706;-77
2021/03/14 07:09:33;;;;;;;;;;;;;;;5.36;75.05;98921.58;1534198;91;20313;-76
2021/03/14 07:12:24;;;;;;;;;;;;;;;5.37;75.20;98932.67;1537021;91;20321;-76
2021/03/14 07:15:18;;;;;;;;;;;;;;;5.40;75.22;98925.75;1537667;91;20407;-76
2021/03/14 07:18:02;;;;;;;;;;;;;;;5.44;75.18;98933.78;1537364;92;20732;-76
2021/03/14 07:20:46;;;;;;;;;;;;;;;5.48;75.22;98940.97;1535275;91;20324;-77
2021/03/14 07:23:33;;;;;;;;;;;;;;;5.50;75.27;98949.03;1538770;91;20610;-76
2021/03/14 07:26:38;;;;;;;;;;;;;;;5.49;75.18;98954.19;1539260;91;20330;-76
2021/03/14 07:29:24;;;;;;;;;;;;;;;5.46;75.16;98967.07;1539815;90;20366;-75
2021/03/14 07:32:08;;;;;;;;;;;;;;;5.42;75.17;98974.42;1535480;91;20307;-76
2021/03/14 07:34:53;;;;;;;;;;;;;;;5.40;75.24;98974.89;1535441;91;20328;-76
2021/03/14 07:37:42;;;;;;;;;;;;;;;5.40;75.31;98983.86;1538699;91;20303;-77
2021/03/14 07:40:29;;;;;;;;;;;;;;;5.40;75.30;98970.61;1565692;89;20711;-77
2021/03/14 07:43:14;;;;;;;;;;;;;;;5.41;75.35;99006.05;1563723;89;20460;-77
2021/03/14 07:45:58;;;;;;;;;;;;;;;5.42;75.28;99005.17;1568495;89;20189;-76
2021/03/14 07:48:43;;;;;;;;;;;;;;;5.44;75.42;99019.66;1565712;89;20332;-76
2021/03/14 07:51:29;;;;;;;;;;;;;;;5.47;75.40;99013.18;1566728;90;20373;-76
2021/03/14 07:54:17;;;;;;;;;;;;;;;5.48;75.35;99026.41;1537021;91;20302;-76
2021/03/14 07:57:02;;;;;;;;;;;;;;;5.48;75.39;99028.13;1564630;90;20345;-76
2021/03/14 07:59:46;;;;;;;;;;;;;;;5.47;75.30;99045.66;1536543;91;20309;-75
2021/03/14 08:02:31;;;;;;;;;;;;;;;5.45;75.36;99045.69;1540326;91;20314;-76
2021/03/14 08:05:16;;;;;;;;;;;;;;;5.41;75.33;99054.31;1565238;90;20341;-74
2021/03/14 08:08:00;;;;;;;;;;;;;;;5.41;75.41;99067.13;1567561;90;20336;-74
2021/03/14 08:10:46;;;;;;;;;;;;;;;5.42;75.40;99070.55;1566662;90;20404;-74
2021/03/14 08:13:34;;;;;;;;;;;;;;;5.44;75.44;99071.36;1561451;89;20361;-74
2021/03/14 08:16:19;;;;;;;;;;;;;;;5.49;75.48;99087.48;1538164;91;20386;-74
2021/03/14 08:19:12;;;;;;;;;;;;;;;5.56;75.48;99080.08;1539961;91;20489;-74
2021/03/14 08:21:57;;;;;;;;;;;;;;;5.62;75.42;99087.21;1516656;91;20278;-74
2021/03/14 08:24:41;;;;;;;;;;;;;;;5.63;75.31;99091.91;1539342;91;20778;-74
2021/03/14 08:27:31;;;;;;;;;;;;;;;5.65;75.39;99094.84;1538936;91;20310;-74
2021/03/14 08:30:34;;;;;;;;;;;;;;;5.65;75.33;99105.10;1540873;91;20275;-74
2021/03/14 08:33:27;;;;;;;;;;;;;;;5.67;75.31;99111.48;1539466;91;20511;-73
2021/03/14 08:36:16;;;;;;;;;;;;;;;5.68;75.25;99117.45;1550403;91;20393;-73
2021/03/14 08:39:00;;;;;;;;;;;;;;;5.67;75.28;99114.48;1520230;91;20292;-73
2021/03/14 08:41:57;;;;;;;;;;;;;;;5.65;75.27;99127.34;1546236;91;20286;-74
2021/03/14 08:44:44;;;;;;;;;;;;;;;5.65;75.34;99142.28;1545749;91;20531;-74
2021/03/14 08:47:28;;;;;;;;;;;;;;;5.62;75.27;99147.91;1544961;91;20503;-74
2021/03/14 08:50:13;;;;;;;;;;;;;;;5.61;75.38;99150.06;1551233;91;20274;-74
2021/03/14 08:52:57;;;;;;;;;;;;;;;5.62;75.32;99158.16;1541249;91;20303;-74
2021/03/14 08:55:42;;;;;;;;;;;;;;;5.62;75.30;99161.57;1541402;92;20278;-74
2021/03/14 08:58:27;;;;;;;;;;;;;;;5.59;75.29;99178.30;1544654;91;21368;-74
2021/03/14 09:01:13;;;;;;;;;;;;;;;5.58;75.33;99170.20;1538474;91;21019;-74
2021/03/14 09:03:57;;;;;;;;;;;;;;;5.56;75.31;99182.64;1552035;90;20316;-74
2021/03/14 09:06:42;;;;;;;;;;;;;;;5.55;75.30;99192.05;1571931;89;20372;-74
2021/03/14 09:09:27;;;;;;;;;;;;;;;5.53;75.27;99190.38;1540677;91;20351;-74
2021/03/14 09:12:14;;;;;;;;;;;;;;;5.52;75.35;99192.53;1551366;91;20297;-73
2021/03/14 09:15:04;;;;;;;;;;;;;;;5.56;75.48;99193.73;1565046;89;20328;-74
2021/03/14 09:17:49;;;;;;;;;;;;;;;5.61;75.47;99197.50;1543159;91;20302;-77
2021/03/14 09:20:34;;;;;;;;;;;;;;;5.68;75.53;99204.64;1564867;89;20337;-76
2021/03/14 09:23:18;;;;;;;;;;;;;;;5.71;75.47;99206.71;1566739;90;20328;-76
2021/03/14 09:26:03;;;;;;;;;;;;;;;5.72;75.46;99209.66;1568861;89;20327;-77
2021/03/14 09:28:48;;;;;;;;;;;;;;;5.78;75.49;99217.23;1567446;89;20592;-77
2021/03/14 09:31:32;;;;;;;;;;;;;;;5.78;75.41;99223.64;1571806;89;20311;-77
2021/03/14 09:34:20;;;;;;;;;;;;;;;5.77;75.43;99230.08;1567329;89;20319;-77
2021/03/14 09:37:05;;;;;;;;;;;;;;;5.80;75.55;99236.44;1566581;90;20638;-77
2021/03/14 09:39:49;;;;;;;;;;;;;;;5.84;75.56;99236.35;1562713;90;20391;-77
2021/03/14 09:42:34;;;;;;;;;;;;;;;5.91;75.57;99241.81;1565119;90;20636;-75
2021/03/14 09:45:21;;;;;;;;;;;;;;;5.96;75.47;99249.42;1563546;90;20321;-74
2021/03/14 09:48:12;;;;;;;;;;;;;;;6.01;75.51;99243.77;1566877;90;20580;-77
2021/03/14 09:51:01;;;;;;;;;;;;;;;6.03;75.39;99252.28;1538071;91;20335;-77
2021/03/14 09:53:46;;;;;;;;;;;;;;;6.05;75.41;99247.96;1535709;91;20427;-76
2021/03/14 09:56:30;;;;;;;;;;;;;;;6.07;75.32;99260.76;1539121;91;20414;-76
2021/03/14 09:59:25;;;;;;;;;;;;;;;6.02;75.18;99261.28;1539066;91;20319;-77
2021/03/14 10:02:09;;;;;;;;;;;;;;;5.96;75.27;99268.22;1535484;91;20650;-77
2021/03/14 10:04:53;;;;;;;;;;;;;;;5.98;75.36;99269.04;1538671;91;20339;-77
2021/03/14 10:07:38;;;;;;;;;;;;;;;6.01;75.38;99275.83;1537802;91;20243;-78
2021/03/14 10:10:23;;;;;;;;;;;;;;;6.02;75.42;99281.38;1535096;93;20363;-78
2021/03/14 10:13:08;;;;;;;;;;;;;;;6.03;75.44;99282.22;1529981;91;20312;-76
2021/03/14 10:15:54;;;;;;;;;;;;;;;6.08;75.60;99288.11;1538443;91;20326;-75
2021/03/14 10:18:39;;;;;;;;;;;;;;;6.13;75.45;99285.87;1538284;91;20658;-76
2021/03/14 10:21:28;;;;;;;;;;;;;;;6.19;75.42;99281.05;1515248;93;20327;-75
2021/03/14 10:24:21;;;;;;;;;;;;;;;6.18;75.31;99294.33;1538485;91;20725;-75
2021/03/14 10:27:06;;;;;;;;;;;;;;;6.17;75.30;99299.05;1533436;91;20325;-75
2021/03/14 10:30:00;;;;;;;;;;;;;;;6.22;75.42;99306.66;1537340;92;20356;-75
2021/03/14 10:32:46;;;;;;;;;;;;;;;6.24;75.30;99304.88;1538060;91;20351;-75
2021/03/14 10:35:31;;;;;;;;;;;;;;;6.26;75.33;99310.83;1526637;91;20337;-75
2021/03/14 10:38:20;;;;;;;;;;;;;;;6.25;75.29;99319.41;1537142;91;20624;-75
2021/03/14 10:41:12;;;;;;;;;;;;;;;6.26;75.33;99322.37;1540845;91;20326;-75
2021/03/14 10:44:00;;;;;;;;;;;;;;;6.31;75.49;99321.86;1506968;92;20295;-75
2021/03/14 10:46:50;;;;;;;;;;;;;;;6.43;75.51;99337.46;1558052;89;20319;-76
2021/03/14 10:49:34;;;;;;;;;;;;;;;6.53;75.50;99329.55;1541306;91;20179;-75
2021/03/14 10:52:18;;;;;;;;;;;;;;;6.59;75.36;99346.55;1536953;91;20297;-76
2021/03/14 10:55:25;;;;;;;;;;;;;;;6.67;75.37;99353.67;1555808;89;20429;-76
2021/03/14 10:58:15;;;;;;;;;;;;;;;6.73;75.39;99355.27;1566392;89;20683;-75
2021/03/14 11:01:01;;;;;;;;;;;;;;;6.78;75.34;99360.69;1572963;89;20320;-76
2021/03/14 11:03:46;;;;;;;;;;;;;;;6.80;75.29;99353.80;1566247;89;20357;-76
2021/03/14 11:06:31;;;;;;;;;;;;;;;6.81;75.29;99358.48;1541716;91;20620;-76
2021/03/14 11:09:18;;;;;;;;;;;;;;;6.82;75.30;99366.16;1540165;91;20293;-76
2021/03/14 11:12:04;;;;;;;;;;;;;;;6.82;75.38;99360.19;1540196;91;20321;-76
2021/03/14 11:14:48;;;;;;;;;;;;;;;6.85;75.51;99365.26;1569169;89;20603;-76
2021/03/14 11:17:36;;;;;;;;;;;;;;;6.86;75.43;99382.36;1571371;89;20321;-76
2021/03/14 11:20:22;;;;;;;;;;;;;;;6.85;75.33;99385.81;1551291;89;20288;-76
2021/03/14 11:23:06;;;;;;;;;;;;;;;6.85;75.48;99384.09;1572189;89;20504;-76
2021/03/14 11:25:52;;;;;;;;;;;;;;;6.84;75.43;99393.11;1573383;89;20325;-76
2021/03/14 11:28:44;;;;;;;;;;;;;;;6.86;75.54;99393.48;1544827;91;20310;-76
2021/03/14 11:31:29;;;;;;;;;;;;;;;6.92;75.69;99401.08;1573040;89;20312;-76
2021/03/14 11:34:13;;;;;;;;;;;;;;;6.96;75.64;99406.56;1564617;89;20197;-76
2021/03/14 11:36:57;;;;;;;;;;;;;;;7.02;75.67;99413.30;1562705;89;20298;-76
2021/03/14 11:39:42;;;;;;;;;;;;;;;6.98;75.56;99408.66;1566893;90;20304;-76
2021/03/14 11:42:27;;;;;;;;;;;;;;;6.91;75.64;99419.94;1520527;93;20291;-76
2021/03/14 11:45:12;;;;;;;;;;;;;;;6.85;75.68;99417.49;1527375;91;20301;-76
2021/03/14 11:47:56;;;;;;;;;;;;;;;6.73;75.63;99424.63;1529609;91;20271;-76
2021/03/14 11:50:41;;;;;;;;;;;;;;;6.60;75.71;99423.57;1568271;90;20296;-76
2021/03/14 11:53:25;;;;;;;;;;;;;;;6.56;75.90;99429.64;1543939;90;20506;-76
2021/03/14 11:56:10;;;;;;;;;;;;;;;6.52;75.85;99429.73;1535207;91;20299;-76
2021/03/14 11:58:57;;;;;;;;;;;;;;;6.44;75.90;99432.87;1534844;91;20200;-76
2021/03/14 12:01:41;;;;;;;;;;;;;;;6.39;76.03;99433.39;1566320;90;20320;-76
2021/03/14 12:04:26;;;;;;;;;;;;;;;6.35;76.04;99422.33;1566156;89;20198;-76
2021/03/14 12:07:10;;;;;;;;;;;;;;;6.32;76.13;99436.50;1562898;90;20514;-76
2021/03/14 12:09:54;;;;;;;;;;;;;;;6.29;76.15;99429.70;1563479;89;20803;-76
2021/03/14 12:12:39;;;;;;;;;;;;;;;6.28;76.19;99436.99;1560061;89;20574;-76
2021/03/14 12:15:23;;;;;;;;;;;;;;;6.27;76.09;99438.30;1563578;90;20317;-76
2021/03/14 12:18:08;;;;;;;;;;;;;;;6.25;76.15;99434.91;1565402;90;20514;-76
2021/03/14 12:20:52;;;;;;;;;;;;;;;6.23;76.17;99445.67;1534868;91;20282;-76
2021/03/14 12:23:37;;;;;;;;;;;;;;;6.21;76.10;99451.27;1564020;89;20289;-76
2021/03/14 12:26:22;;;;;;;;;;;;;;;6.20;76.15;99445.73;1564939;90;20357;-76
2021/03/14 12:29:08;;;;;;;;;;;;;;;6.24;76.21;99447.34;1562086;90;20359;-76
2021/03/14 12:31:52;;;;;;;;;;;;;;;6.30;76.29;99447.23;1531872;91;20320;-76
2021/03/14 12:34:36;;;;;;;;;;;;;;;6.39;76.12;99444.51;1563628;89;20348;-76
2021/03/14 12:37:21;;;;;;;;;;;;;;;6.41;76.00;99444.05;1561605;90;20348;-76
2021/03/14 12:40:08;;;;;;;;;;;;;;;6.41;76.04;99440.62;1544249;90;20324;-76
2021/03/14 12:42:53;;;;;;;;;;;;;;;6.47;76.15;99450.79;1573035;90;20278;-76
2021/03/14 12:45:37;;;;;;;;;;;;;;;6.58;76.30;99456.14;1539059;91;20284;-76
2021/03/14 12:48:21;;;;;;;;;;;;;;;6.71;76.17;99452.06;1564927;90;20365;-76
2021/03/14 12:51:06;;;;;;;;;;;;;;;6.79;76.19;99458.72;1566661;89;20440;-76
2021/03/14 12:53:51;;;;;;;;;;;;;;;6.89;76.13;99449.95;1565546;89;20672;-76
2021/03/14 12:56:35;;;;;;;;;;;;;;;7.00;76.08;99451.03;1565376;90;20326;-76
2021/03/14 12:59:20;;;;;;;;;;;;;;;7.07;76.00;99451.31;1567521;90;20365;-76
2021/03/14 13:02:05;;;;;;;;;;;;;;;7.13;75.93;99452.48;1565127;91;20361;-76
2021/03/14 13:04:50;;;;;;;;;;;;;;;7.17;75.84;99448.97;1568002;90;20325;-76
2021/03/14 13:07:34;;;;;;;;;;;;;;;7.17;75.71;99460.97;1550905;90;21362;-76
2021/03/14 13:10:20;;;;;;;;;;;;;;;7.10;75.59;99464.55;1533966;91;20310;-76
2021/03/14 13:13:04;;;;;;;;;;;;;;;6.99;75.62;99462.19;1537763;91;20324;-76
2021/03/14 13:15:49;;;;;;;;;;;;;;;6.90;75.78;99479.91;1544888;91;20302;-76
2021/03/14 13:18:33;;;;;;;;;;;;;;;6.88;75.94;99497.52;1566198;90;20364;-77
2021/03/14 13:21:18;;;;;;;;;;;;;;;6.80;75.95;99519.94;1563123;89;20337;-76
2021/03/14 13:24:03;;;;;;;;;;;;;;;6.41;75.49;99544.18;1558650;89;20339;-76
2021/03/14 13:26:47;;;;;;;;;;;;;;;5.92;75.54;99524.42;1557880;90;20316;-76
2021/03/14 13:29:32;;;;;;;;;;;;;;;5.76;76.17;99539.58;1542098;91;20651;-76
2021/03/14 13:32:16;;;;;;;;;;;;;;;5.67;76.36;99543.59;1552313;90;20331;-76
2021/03/14 13:35:01;;;;;;;;;;;;;;;5.64;76.42;99548.75;1566680;90;20352;-76
2021/03/14 13:37:46;;;;;;;;;;;;;;;5.59;76.53;99532.14;1557523;90;21042;-76
2021/03/14 13:40:30;;;;;;;;;;;;;;;5.59;76.66;99535.14;1560182;90;20576;-76
2021/03/14 13:43:14;;;;;;;;;;;;;;;5.61;76.73;99543.67;1562432;90;20584;-76
2021/03/14 13:46:01;;;;;;;;;;;;;;;5.65;76.87;99551.30;1571197;89;20296;-76
2021/03/14 13:48:45;;;;;;;;;;;;;;;5.73;76.92;99553.73;1558861;90;20313;-76
2021/03/14 13:51:30;;;;;;;;;;;;;;;5.77;76.71;99557.95;1566306;90;20293;-76
2021/03/14 13:54:14;;;;;;;;;;;;;;;5.83;76.87;99560.88;1562614;89;20353;-76
2021/03/14 13:56:59;;;;;;;;;;;;;;;5.88;76.87;99565.07;1564185;90;20345;-76
2021/03/14 13:59:43;;;;;;;;;;;;;;;5.91;76.85;99574.48;1564458;90;20340;-76
2021/03/14 14:02:28;;;;;;;;;;;;;;;5.94;76.87;99576.56;1556747;89;20331;-76
2021/03/14 14:05:12;;;;;;;;;;;;;;;6.04;77.06;99579.85;1565561;90;20338;-76
2021/03/14 14:07:57;;;;;;;;;;;;;;;6.13;76.96;99578.44;1564764;90;20329;-76
2021/03/14 14:10:42;;;;;;;;;;;;;;;6.22;77.12;99576.17;1534500;91;20617;-76
2021/03/14 14:13:27;;;;;;;;;;;;;;;6.30;77.02;99575.59;1532547;92;20377;-76
2021/03/14 14:16:12;;;;;;;;;;;;;;;6.38;76.99;99586.59;1531584;91;20335;-76
2021/03/14 14:18:56;;;;;;;;;;;;;;;6.47;77.04;99581.31;1511815;93;20291;-76
2021/03/14 14:21:41;;;;;;;;;;;;;;;6.54;76.94;99586.77;1564527;90;20333;-76
2021/03/14 14:24:25;;;;;;;;;;;;;;;6.57;76.90;99591.00;1562675;91;20333;-76
2021/03/14 14:27:10;;;;;;;;;;;;;;;6.61;76.93;99596.50;1560231;89;20333;-76
2021/03/14 14:29:54;;;;;;;;;;;;;;;6.67;76.92;99608.41;1538920;91;20363;-76
2021/03/14 14:32:39;;;;;;;;;;;;;;;6.74;77.05;99613.85;1540717;90;20328;-76
2021/03/14 14:35:24;;;;;;;;;;;;;;;6.76;76.85;99621.91;1541741;89;20333;-76